Celebrity Constellation — 9HJB9 — position and weather

sailwx.info

Track history (hours):
 
Tides and Currents Weather Stations Pressure Air Temp Water Temp Dewpoint Dewpoint Depression Visibility Wind Speed Wind Dir Waves Ship Positions

Celebrity Constellation

Last reported at 2017-Aug-20 18:00 UTC. Time now 2017-Aug-20 20:48 UTC.
Position N 42°36' E 018°00'.

Length 294 m; draft 8.3 m.

Type: Passenger vessel. MMSI: 249046000.

Wind from 140 at 5 knots

Barometer 1011.0 mb
Air temperature 24.0 ° C
Dewpoint 19.6 ° C

Date/timePositionNaut miles runAvg speedWind from/ knotsBaromVisibWave heightAir tempDewpointWater temp
2017-Aug-20 18:00N 42°36' E 018°00'0 0.0 140 / 51011.0 24.019.6
2017-Aug-20 13:00N 42°36' E 018°00'9413.5 070 / 181011.0 25.022.2
2017-Aug-20 06:00N 42°54' E 015°54'7414.8 070 / 181011.0 25.022.2
2017-Aug-20 01:00N 43°36' E 014°30'2331.1 040 / 101014.0 26.023.2
2017-Aug-20 00:15N 43°57' E 014°18'2716.8
2017-Aug-19 22:40N 44°16' E 013°52'317.2
2017-Aug-19 22:31N 44°18' E 013°50'917.2
2017-Aug-19 22:00N 44°25' E 013°42'816.6
2017-Aug-19 21:30N 44°33' E 013°36'816.5
2017-Aug-19 21:01N 44°39' E 013°30'917.5
2017-Aug-19 20:31N 44°47' E 013°23'918.0
2017-Aug-19 20:00N 44°54' E 013°16'917.7
2017-Aug-19 19:31N 45°01' E 013°08'816.9
2017-Aug-19 19:01N 45°07' E 012°60'816.9
2017-Aug-19 18:30N 45°13' E 012°51'817.0
2017-Aug-19 18:01N 45°18' E 012°42'816.1
2017-Aug-19 17:31N 45°23' E 012°32'612.9
2017-Aug-19 17:00N 45°26' E 012°24'3 5.8
2017-Aug-19 16:31N 45°26' E 012°20'1 2.5
2017-Aug-19 16:00N 45°26' E 012°19'0 0.0
2017-Aug-19 15:30N 45°26' E 012°19'0 0.0
2017-Aug-19 15:00N 45°26' E 012°19'0 0.0
2017-Aug-19 14:00N 45°26' E 012°19'0 0.0
2017-Aug-19 13:30N 45°26' E 012°19'0 0.0
2017-Aug-19 13:00N 45°26' E 012°19'0 0.0
2017-Aug-19 12:30N 45°26' E 012°19'0 0.0
2017-Aug-19 12:00N 45°26' E 012°19'0 0.0
2017-Aug-19 11:30N 45°26' E 012°19'0 0.0
2017-Aug-19 11:00N 45°26' E 012°19'0 0.0
2017-Aug-19 10:30N 45°26' E 012°19'0 0.0
2017-Aug-19 10:00N 45°26' E 012°19'2154.2
2017-Aug-19 10:00N 45°24' E 012°18'2 4.8 040 / 101014.0 26.023.2
2017-Aug-19 09:30N 45°26' E 012°19'0 0.0
2017-Aug-19 09:00N 45°26' E 012°19'0 0.0
2017-Aug-19 08:30N 45°26' E 012°19'0 0.0
2017-Aug-19 08:00N 45°26' E 012°19'0 0.0
2017-Aug-19 07:30N 45°26' E 012°19'0 0.0
2017-Aug-19 07:00N 45°26' E 012°19'0 0.0
2017-Aug-19 06:27N 45°26' E 012°19'0 0.0
2017-Aug-19 06:00N 45°26' E 012°19'0 0.0
2017-Aug-19 05:30N 45°26' E 012°19'0 0.0
2017-Aug-19 05:00N 45°26' E 012°19'0 0.0
2017-Aug-19 04:30N 45°26' E 012°19'0 0.0
2017-Aug-19 04:00N 45°26' E 012°19'1 1.3
2017-Aug-19 03:30N 45°26' E 012°19'3 5.1
2017-Aug-19 03:00N 45°26' E 012°23'4 8.4
2017-Aug-19 02:30N 45°24' E 012°28'612.5
2017-Aug-19 02:00N 45°21' E 012°36'816.1
2017-Aug-19 01:31N 45°17' E 012°46'816.7
2017-Aug-19 01:00N 45°10' E 012°53'816.8
2017-Aug-19 00:30N 45°04' E 013°01'816.1
2017-Aug-19 00:01N 44°60' E 013°11'816.2
2017-Aug-18 23:31N 44°56' E 013°21'816.5
2017-Aug-18 23:00N 44°49' E 013°27'8508.1
2017-Aug-18 23:00N 44°54' E 013°18'1633.2 020 / 51015.0 26.020.2
2017-Aug-18 22:30N 44°42' E 013°34'816.6
2017-Aug-18 22:00N 44°35' E 013°40'816.7
2017-Aug-18 21:30N 44°28' E 013°46'816.9
2017-Aug-18 21:00N 44°21' E 013°53'917.1
2017-Aug-18 20:30N 44°14' E 013°60'817.1
2017-Aug-18 20:00N 44°07' E 014°07'917.1
2017-Aug-18 19:30N 44°01' E 014°15'917.1
2017-Aug-18 19:00N 43°54' E 014°22'816.9
2017-Aug-18 18:30N 43°48' E 014°29'917.0
2017-Aug-18 18:00N 43°41' E 014°36'5322.0
2017-Aug-18 18:00N 43°36' E 014°36'612.5 020 / 51015.0 26.020.2
2017-Aug-18 17:30N 43°34' E 014°44'20317.6
2017-Aug-18 06:00N 41°00' E 017°42'1715.5 330 / 181017.0 25.020.7
2017-Aug-18 04:53N 40°52' E 018°02'2017.3
2017-Aug-18 03:43N 40°37' E 018°20'617.5
2017-Aug-18 03:23N 40°32' E 018°24'2517.2
2017-Aug-18 01:55N 40°11' E 018°42'817.3
2017-Aug-18 01:26N 40°04' E 018°47'917.6
2017-Aug-18 00:55N 39°56' E 018°53'717.4
2017-Aug-18 00:30N 39°50' E 018°58'917.6
2017-Aug-18 00:01N 39°42' E 019°04'918.1
2017-Aug-17 23:30N 39°34' E 019°10'917.7
2017-Aug-17 23:00N 39°27' E 019°16'917.4
2017-Aug-17 22:30N 39°20' E 019°22'1617.8
2017-Aug-17 21:36N 39°06' E 019°33'218.0
2017-Aug-17 21:28N 39°04' E 019°34'817.9
2017-Aug-17 21:01N 38°57' E 019°40'1617.9
2017-Aug-17 20:06N 38°43' E 019°51'217.7
2017-Aug-17 20:00N 38°41' E 019°52'917.7
2017-Aug-17 19:30N 38°34' E 019°58'86 5.9
2017-Aug-17 05:00N 37°36' E 021°18'28 9.6 270 / 41013.0 23.016.9
2017-Aug-17 02:02N 37°08' E 021°26'016.5
2017-Aug-17 02:00N 37°08' E 021°26'816.4
2017-Aug-17 01:30N 37°00' E 021°29'815.6
2017-Aug-17 01:00N 36°54' E 021°36'18514.3 080 / 211013.0 27.021.3
2017-Aug-16 12:00N 36°24' E 025°24'0 0.0 290 / 251009.0 24.019.6
2017-Aug-16 04:00N 36°24' E 025°24'17028.3 290 / 251009.0 24.019.6
2017-Aug-15 22:00N 33°36' E 024°54'21275.6 350 / 301014.0 25.022.2
2017-Aug-15 19:11N 37°08' E 024°53'1 8.4
2017-Aug-15 19:00N 37°10' E 024°54'4 8.0
2017-Aug-15 18:30N 37°14' E 024°55'4 8.3
2017-Aug-15 18:00N 37°17' E 024°58'5 9.3
2017-Aug-15 17:30N 37°21' E 025°01'510.0
2017-Aug-15 17:00N 37°24' E 025°06'1205.0 350 / 301014.0 25.022.2
2017-Aug-15 16:59N 37°24' E 025°05'5 9.8
2017-Aug-15 16:31N 37°27' E 025°10'5 9.3
2017-Aug-15 16:00N 37°27' E 025°16'3 4.2
2017-Aug-15 15:22N 37°27' E 025°19'0 0.1
2017-Aug-15 14:58N 37°27' E 025°19'0 0.0
2017-Aug-15 14:16N 37°27' E 025°19'0 0.0
2017-Aug-15 13:58N 37°27' E 025°19'0 0.0
2017-Aug-15 13:22N 37°27' E 025°19'0 0.0
2017-Aug-15 12:55N 37°27' E 025°19'0 0.0
2017-Aug-15 12:28N 37°27' E 025°19'0 0.0
2017-Aug-15 11:58N 37°27' E 025°19'0 0.0
2017-Aug-15 11:28N 37°27' E 025°19'0 0.0
2017-Aug-15 10:55N 37°27' E 025°19'0 0.0
2017-Aug-15 10:28N 37°27' E 025°19'0 0.0
2017-Aug-15 09:52N 37°27' E 025°19'0 0.0
2017-Aug-15 09:28N 37°27' E 025°19'0 0.0
2017-Aug-15 08:58N 37°27' E 025°19'0 0.0
2017-Aug-15 08:16N 37°27' E 025°19'0 0.0
2017-Aug-15 07:55N 37°27' E 025°19'0 0.0
2017-Aug-15 07:22N 37°27' E 025°19'0 0.0
2017-Aug-15 06:58N 37°27' E 025°19'0 0.0
2017-Aug-15 06:28N 37°27' E 025°19'0 0.0
2017-Aug-15 05:58N 37°27' E 025°19'0 0.0
2017-Aug-15 05:28N 37°27' E 025°19'0 0.0
2017-Aug-15 04:55N 37°27' E 025°19'0 0.0
2017-Aug-15 04:19N 37°27' E 025°19'0 0.1
2017-Aug-15 03:58N 37°27' E 025°19'0 0.2
2017-Aug-15 03:31N 37°27' E 025°19'3 5.3
2017-Aug-15 03:01N 37°28' E 025°16'5 9.6
2017-Aug-15 02:30N 37°29' E 025°10'510.3
2017-Aug-15 02:01N 37°30' E 025°04'611.2
2017-Aug-15 01:30N 37°32' E 024°57'612.0
2017-Aug-15 01:01N 37°33' E 024°50'11658.1
2017-Aug-15 01:00N 37°30' E 024°36'42 5.9 080 / 211013.0 27.021.3
2017-Aug-14 17:53N 37°36' E 023°43'3 7.3
2017-Aug-14 17:30N 37°39' E 023°43'4 7.6
2017-Aug-14 17:01N 37°42' E 023°41'4 7.7
2017-Aug-14 16:31N 37°46' E 023°39'4 7.8
2017-Aug-14 16:01N 37°49' E 023°37'7431.6
2017-Aug-14 16:00N 37°42' E 023°36'1123.3 080 / 211013.0 27.021.3
2017-Aug-14 15:31N 37°53' E 023°36'3 6.1
2017-Aug-14 15:01N 37°56' E 023°37'0 0.2
2017-Aug-14 14:30N 37°56' E 023°37'0 0.0
2017-Aug-14 14:01N 37°56' E 023°37'0 0.0
2017-Aug-14 13:30N 37°56' E 023°37'0 0.0
2017-Aug-14 13:00N 37°56' E 023°37'0 0.0
2017-Aug-14 12:30N 37°56' E 023°37'0 0.0
2017-Aug-14 12:00N 37°56' E 023°37'0 0.0
2017-Aug-14 11:30N 37°56' E 023°37'0 0.0
2017-Aug-14 11:00N 37°56' E 023°37'0 0.0
2017-Aug-14 10:30N 37°56' E 023°37'0 0.0
2017-Aug-14 10:00N 37°56' E 023°37'2157.9
2017-Aug-14 10:00N 37°54' E 023°36'2 4.9 320 / 161012.0 24.016.4
2017-Aug-14 09:30N 37°56' E 023°37'0 0.0
2017-Aug-14 09:00N 37°56' E 023°37'0 0.0
2017-Aug-14 08:30N 37°56' E 023°37'0 0.0
2017-Aug-14 08:00N 37°56' E 023°37'0 0.0
2017-Aug-14 07:30N 37°56' E 023°37'0 0.0
2017-Aug-14 07:00N 37°56' E 023°37'0 0.0
2017-Aug-14 06:30N 37°56' E 023°37'0 0.0
2017-Aug-14 06:00N 37°56' E 023°37'0 0.0
2017-Aug-14 05:30N 37°56' E 023°37'0 0.0
2017-Aug-14 05:00N 37°56' E 023°37'0 0.0
2017-Aug-14 04:30N 37°56' E 023°37'0 0.0
2017-Aug-14 04:00N 37°56' E 023°37'2158.1
2017-Aug-14 04:00N 37°54' E 023°36'2 4.9 320 / 161012.0 24.016.4
2017-Aug-14 03:30N 37°56' E 023°37'0 0.0
2017-Aug-14 03:00N 37°56' E 023°37'0 0.0
2017-Aug-14 02:30N 37°56' E 023°37'0 0.0
2017-Aug-14 02:00N 37°56' E 023°37'0 0.3
2017-Aug-14 01:30N 37°56' E 023°37'1 2.6
2017-Aug-14 01:00N 37°55' E 023°37'714.9
2017-Aug-14 00:30N 37°48' E 023°41'816.9
2017-Aug-14 00:00N 37°40' E 023°45'816.5
2017-Aug-13 23:30N 37°32' E 023°44'917.3
2017-Aug-13 23:00N 37°24' E 023°41'918.1
2017-Aug-13 22:30N 37°15' E 023°39'2217.2
2017-Aug-13 21:12N 36°53' E 023°32'317.3
2017-Aug-13 21:00N 36°50' E 023°30'7214.4
2017-Aug-13 16:00N 36°24' E 022°06'6020.1 310 / 331010.0 25.019.1
2017-Aug-13 13:00N 37°06' E 021°12'14217.7 330 / 251010.0 23.018.5
2017-Aug-13 05:00N 39°06' E 019°36'20418.5 330 / 251010.0 23.018.5
2017-Aug-12 18:00N 42°18' E 018°06'19 3.7 290 / 161010.0 25.020.7
2017-Aug-12 13:00N 42°36' E 018°00'0 0.0 180 / 51011.0 28.022.4
2017-Aug-12 05:00N 42°36' E 018°00'0 0.0 180 / 51011.0 28.022.4
2017-Aug-12 02:00N 42°36' E 018°00'0 0.0 190 / 51011.0 28.025.3
2017-Aug-11 18:00N 42°36' E 018°00'75 6.3 190 / 51011.0 28.025.3
2017-Aug-11 06:00N 42°42' E 016°18'7819.5 270 / 71010.0 28.023.9
2017-Aug-11 02:00N 43°30' E 014°54'3712.3 290 / 111012.0 25.020.7
2017-Aug-10 22:59N 43°57' E 014°19'816.2
2017-Aug-10 22:30N 44°02' E 014°10'816.1
2017-Aug-10 22:00N 44°07' E 014°02'816.0
2017-Aug-10 21:30N 44°14' E 013°56'816.0
2017-Aug-10 20:59N 44°20' E 013°49'816.0
2017-Aug-10 20:30N 44°27' E 013°43'816.1
2017-Aug-10 20:00N 44°33' E 013°36'816.3
2017-Aug-10 19:30N 44°40' E 013°30'816.4
2017-Aug-10 19:00N 44°47' E 013°23'816.7
2017-Aug-10 18:30N 44°54' E 013°16'816.5
2017-Aug-10 18:00N 45°00' E 013°09'6574.7
2017-Aug-10 18:00N 44°54' E 013°06'   290 / 111012.0 25.020.7
Track history (hours):
 
Tides and Currents Weather Stations Pressure Air Temp Water Temp Dewpoint Dewpoint Depression Visibility Wind Speed Wind Dir Waves Ship Positions

Celebrity Constellation

Last reported at 2017-Aug-20 18:00 UTC. Time now 2017-Aug-20 20:48 UTC.
Position N 42°36' E 018°00'.

Length 294 m; draft 8.3 m.

Type: Passenger vessel. MMSI: 249046000.

Wind from 140 at 5 knots

Barometer 1011.0 mb
Air temperature 24.0 ° C
Dewpoint 19.6 ° C

Date/timePositionNaut miles runAvg speedWind from/ knotsBaromVisibWave heightAir tempDewpointWater temp
2017-Aug-20 18:00N 42°36' E 018°00'0 0.0 140 / 51011.0 24.019.6
2017-Aug-20 13:00N 42°36' E 018°00'9413.5 070 / 181011.0 25.022.2
2017-Aug-20 06:00N 42°54' E 015°54'7414.8 070 / 181011.0 25.022.2
2017-Aug-20 01:00N 43°36' E 014°30'2331.1 040 / 101014.0 26.023.2
2017-Aug-20 00:15N 43°57' E 014°18'2716.8
2017-Aug-19 22:40N 44°16' E 013°52'317.2
2017-Aug-19 22:31N 44°18' E 013°50'917.2
2017-Aug-19 22:00N 44°25' E 013°42'816.6
2017-Aug-19 21:30N 44°33' E 013°36'816.5
2017-Aug-19 21:01N 44°39' E 013°30'917.5
2017-Aug-19 20:31N 44°47' E 013°23'918.0
2017-Aug-19 20:00N 44°54' E 013°16'917.7
2017-Aug-19 19:31N 45°01' E 013°08'816.9
2017-Aug-19 19:01N 45°07' E 012°60'816.9
2017-Aug-19 18:30N 45°13' E 012°51'817.0
2017-Aug-19 18:01N 45°18' E 012°42'816.1
2017-Aug-19 17:31N 45°23' E 012°32'612.9
2017-Aug-19 17:00N 45°26' E 012°24'3 5.8
2017-Aug-19 16:31N 45°26' E 012°20'1 2.5
2017-Aug-19 16:00N 45°26' E 012°19'0 0.0
2017-Aug-19 15:30N 45°26' E 012°19'0 0.0
2017-Aug-19 15:00N 45°26' E 012°19'0 0.0
2017-Aug-19 14:00N 45°26' E 012°19'0 0.0
2017-Aug-19 13:30N 45°26' E 012°19'0 0.0
2017-Aug-19 13:00N 45°26' E 012°19'0 0.0
2017-Aug-19 12:30N 45°26' E 012°19'0 0.0
2017-Aug-19 12:00N 45°26' E 012°19'0 0.0
2017-Aug-19 11:30N 45°26' E 012°19'0 0.0
2017-Aug-19 11:00N 45°26' E 012°19'0 0.0
2017-Aug-19 10:30N 45°26' E 012°19'0 0.0
2017-Aug-19 10:00N 45°26' E 012°19'2154.2
2017-Aug-19 10:00N 45°24' E 012°18'2 4.8 040 / 101014.0 26.023.2
2017-Aug-19 09:30N 45°26' E 012°19'0 0.0
2017-Aug-19 09:00N 45°26' E 012°19'0 0.0
2017-Aug-19 08:30N 45°26' E 012°19'0 0.0
2017-Aug-19 08:00N 45°26' E 012°19'0 0.0
2017-Aug-19 07:30N 45°26' E 012°19'0 0.0
2017-Aug-19 07:00N 45°26' E 012°19'0 0.0
2017-Aug-19 06:27N 45°26' E 012°19'0 0.0
2017-Aug-19 06:00N 45°26' E 012°19'0 0.0
2017-Aug-19 05:30N 45°26' E 012°19'0 0.0
2017-Aug-19 05:00N 45°26' E 012°19'0 0.0
2017-Aug-19 04:30N 45°26' E 012°19'0 0.0
2017-Aug-19 04:00N 45°26' E 012°19'1 1.3
2017-Aug-19 03:30N 45°26' E 012°19'3 5.1
2017-Aug-19 03:00N 45°26' E 012°23'4 8.4
2017-Aug-19 02:30N 45°24' E 012°28'612.5
2017-Aug-19 02:00N 45°21' E 012°36'816.1
2017-Aug-19 01:31N 45°17' E 012°46'816.7
2017-Aug-19 01:00N 45°10' E 012°53'816.8
2017-Aug-19 00:30N 45°04' E 013°01'816.1
2017-Aug-19 00:01N 44°60' E 013°11'816.2
2017-Aug-18 23:31N 44°56' E 013°21'816.5
2017-Aug-18 23:00N 44°49' E 013°27'8508.1
2017-Aug-18 23:00N 44°54' E 013°18'1633.2 020 / 51015.0 26.020.2
2017-Aug-18 22:30N 44°42' E 013°34'816.6
2017-Aug-18 22:00N 44°35' E 013°40'816.7
2017-Aug-18 21:30N 44°28' E 013°46'816.9
2017-Aug-18 21:00N 44°21' E 013°53'917.1
2017-Aug-18 20:30N 44°14' E 013°60'817.1
2017-Aug-18 20:00N 44°07' E 014°07'917.1
2017-Aug-18 19:30N 44°01' E 014°15'917.1
2017-Aug-18 19:00N 43°54' E 014°22'816.9
2017-Aug-18 18:30N 43°48' E 014°29'917.0
2017-Aug-18 18:00N 43°41' E 014°36'5322.0
2017-Aug-18 18:00N 43°36' E 014°36'612.5 020 / 51015.0 26.020.2
2017-Aug-18 17:30N 43°34' E 014°44'20317.6
2017-Aug-18 06:00N 41°00' E 017°42'1715.5 330 / 181017.0 25.020.7
2017-Aug-18 04:53N 40°52' E 018°02'2017.3
2017-Aug-18 03:43N 40°37' E 018°20'617.5
2017-Aug-18 03:23N 40°32' E 018°24'2517.2
2017-Aug-18 01:55N 40°11' E 018°42'817.3
2017-Aug-18 01:26N 40°04' E 018°47'917.6
2017-Aug-18 00:55N 39°56' E 018°53'717.4
2017-Aug-18 00:30N 39°50' E 018°58'917.6
2017-Aug-18 00:01N 39°42' E 019°04'918.1
2017-Aug-17 23:30N 39°34' E 019°10'917.7
2017-Aug-17 23:00N 39°27' E 019°16'917.4
2017-Aug-17 22:30N 39°20' E 019°22'1617.8
2017-Aug-17 21:36N 39°06' E 019°33'218.0
2017-Aug-17 21:28N 39°04' E 019°34'817.9
2017-Aug-17 21:01N 38°57' E 019°40'1617.9
2017-Aug-17 20:06N 38°43' E 019°51'217.7
2017-Aug-17 20:00N 38°41' E 019°52'917.7
2017-Aug-17 19:30N 38°34' E 019°58'86 5.9
2017-Aug-17 05:00N 37°36' E 021°18'28 9.6 270 / 41013.0 23.016.9
2017-Aug-17 02:02N 37°08' E 021°26'016.5
2017-Aug-17 02:00N 37°08' E 021°26'816.4
2017-Aug-17 01:30N 37°00' E 021°29'815.6
2017-Aug-17 01:00N 36°54' E 021°36'18514.3 080 / 211013.0 27.021.3
2017-Aug-16 12:00N 36°24' E 025°24'0 0.0 290 / 251009.0 24.019.6
2017-Aug-16 04:00N 36°24' E 025°24'17028.3 290 / 251009.0 24.019.6
2017-Aug-15 22:00N 33°36' E 024°54'21275.6 350 / 301014.0 25.022.2
2017-Aug-15 19:11N 37°08' E 024°53'1 8.4
2017-Aug-15 19:00N 37°10' E 024°54'4 8.0
2017-Aug-15 18:30N 37°14' E 024°55'4 8.3
2017-Aug-15 18:00N 37°17' E 024°58'5 9.3
2017-Aug-15 17:30N 37°21' E 025°01'510.0
2017-Aug-15 17:00N 37°24' E 025°06'1205.0 350 / 301014.0 25.022.2
2017-Aug-15 16:59N 37°24' E 025°05'5 9.8
2017-Aug-15 16:31N 37°27' E 025°10'5 9.3
2017-Aug-15 16:00N 37°27' E 025°16'3 4.2
2017-Aug-15 15:22N 37°27' E 025°19'0 0.1
2017-Aug-15 14:58N 37°27' E 025°19'0 0.0
2017-Aug-15 14:16N 37°27' E 025°19'0 0.0
2017-Aug-15 13:58N 37°27' E 025°19'0 0.0
2017-Aug-15 13:22N 37°27' E 025°19'0 0.0
2017-Aug-15 12:55N 37°27' E 025°19'0 0.0
2017-Aug-15 12:28N 37°27' E 025°19'0 0.0
2017-Aug-15 11:58N 37°27' E 025°19'0 0.0
2017-Aug-15 11:28N 37°27' E 025°19'0 0.0
2017-Aug-15 10:55N 37°27' E 025°19'0 0.0
2017-Aug-15 10:28N 37°27' E 025°19'0 0.0
2017-Aug-15 09:52N 37°27' E 025°19'0 0.0
2017-Aug-15 09:28N 37°27' E 025°19'0 0.0
2017-Aug-15 08:58N 37°27' E 025°19'0 0.0
2017-Aug-15 08:16N 37°27' E 025°19'0 0.0
2017-Aug-15 07:55N 37°27' E 025°19'0 0.0
2017-Aug-15 07:22N 37°27' E 025°19'0 0.0
2017-Aug-15 06:58N 37°27' E 025°19'0 0.0
2017-Aug-15 06:28N 37°27' E 025°19'0 0.0
2017-Aug-15 05:58N 37°27' E 025°19'0 0.0
2017-Aug-15 05:28N 37°27' E 025°19'0 0.0
2017-Aug-15 04:55N 37°27' E 025°19'0 0.0
2017-Aug-15 04:19N 37°27' E 025°19'0 0.1
2017-Aug-15 03:58N 37°27' E 025°19'0 0.2
2017-Aug-15 03:31N 37°27' E 025°19'3 5.3
2017-Aug-15 03:01N 37°28' E 025°16'5 9.6
2017-Aug-15 02:30N 37°29' E 025°10'510.3
2017-Aug-15 02:01N 37°30' E 025°04'611.2
2017-Aug-15 01:30N 37°32' E 024°57'612.0
2017-Aug-15 01:01N 37°33' E 024°50'11658.1
2017-Aug-15 01:00N 37°30' E 024°36'42 5.9 080 / 211013.0 27.021.3
2017-Aug-14 17:53N 37°36' E 023°43'3 7.3
2017-Aug-14 17:30N 37°39' E 023°43'4 7.6
2017-Aug-14 17:01N 37°42' E 023°41'4 7.7
2017-Aug-14 16:31N 37°46' E 023°39'4 7.8
2017-Aug-14 16:01N 37°49' E 023°37'7431.6
2017-Aug-14 16:00N 37°42' E 023°36'1123.3 080 / 211013.0 27.021.3
2017-Aug-14 15:31N 37°53' E 023°36'3 6.1
2017-Aug-14 15:01N 37°56' E 023°37'0 0.2
2017-Aug-14 14:30N 37°56' E 023°37'0 0.0
2017-Aug-14 14:01N 37°56' E 023°37'0 0.0
2017-Aug-14 13:30N 37°56' E 023°37'0 0.0
2017-Aug-14 13:00N 37°56' E 023°37'0 0.0
2017-Aug-14 12:30N 37°56' E 023°37'0 0.0
2017-Aug-14 12:00N 37°56' E 023°37'0 0.0
2017-Aug-14 11:30N 37°56' E 023°37'0 0.0
2017-Aug-14 11:00N 37°56' E 023°37'0 0.0
2017-Aug-14 10:30N 37°56' E 023°37'0 0.0
2017-Aug-14 10:00N 37°56' E 023°37'2157.9
2017-Aug-14 10:00N 37°54' E 023°36'2 4.9 320 / 161012.0 24.016.4
2017-Aug-14 09:30N 37°56' E 023°37'0 0.0
2017-Aug-14 09:00N 37°56' E 023°37'0 0.0
2017-Aug-14 08:30N 37°56' E 023°37'0 0.0
2017-Aug-14 08:00N 37°56' E 023°37'0 0.0
2017-Aug-14 07:30N 37°56' E 023°37'0 0.0
2017-Aug-14 07:00N 37°56' E 023°37'0 0.0
2017-Aug-14 06:30N 37°56' E 023°37'0 0.0
2017-Aug-14 06:00N 37°56' E 023°37'0 0.0
2017-Aug-14 05:30N 37°56' E 023°37'0 0.0
2017-Aug-14 05:00N 37°56' E 023°37'0 0.0
2017-Aug-14 04:30N 37°56' E 023°37'0 0.0
2017-Aug-14 04:00N 37°56' E 023°37'2158.1
2017-Aug-14 04:00N 37°54' E 023°36'2 4.9 320 / 161012.0 24.016.4
2017-Aug-14 03:30N 37°56' E 023°37'0 0.0
2017-Aug-14 03:00N 37°56' E 023°37'0 0.0
2017-Aug-14 02:30N 37°56' E 023°37'0 0.0
2017-Aug-14 02:00N 37°56' E 023°37'0 0.3
2017-Aug-14 01:30N 37°56' E 023°37'1 2.6
2017-Aug-14 01:00N 37°55' E 023°37'714.9
2017-Aug-14 00:30N 37°48' E 023°41'816.9
2017-Aug-14 00:00N 37°40' E 023°45'816.5
2017-Aug-13 23:30N 37°32' E 023°44'917.3
2017-Aug-13 23:00N 37°24' E 023°41'918.1
2017-Aug-13 22:30N 37°15' E 023°39'2217.2
2017-Aug-13 21:12N 36°53' E 023°32'317.3
2017-Aug-13 21:00N 36°50' E 023°30'7214.4
2017-Aug-13 16:00N 36°24' E 022°06'6020.1 310 / 331010.0 25.019.1
2017-Aug-13 13:00N 37°06' E 021°12'14217.7 330 / 251010.0 23.018.5
2017-Aug-13 05:00N 39°06' E 019°36'20418.5 330 / 251010.0 23.018.5
2017-Aug-12 18:00N 42°18' E 018°06'19 3.7 290 / 161010.0 25.020.7
2017-Aug-12 13:00N 42°36' E 018°00'0 0.0 180 / 51011.0 28.022.4
2017-Aug-12 05:00N 42°36' E 018°00'0 0.0 180 / 51011.0 28.022.4
2017-Aug-12 02:00N 42°36' E 018°00'0 0.0 190 / 51011.0 28.025.3
2017-Aug-11 18:00N 42°36' E 018°00'75 6.3 190 / 51011.0 28.025.3
2017-Aug-11 06:00N 42°42' E 016°18'7819.5 270 / 71010.0 28.023.9
2017-Aug-11 02:00N 43°30' E 014°54'3712.3 290 / 111012.0 25.020.7
2017-Aug-10 22:59N 43°57' E 014°19'816.2
2017-Aug-10 22:30N 44°02' E 014°10'816.1
2017-Aug-10 22:00N 44°07' E 014°02'816.0
2017-Aug-10 21:30N 44°14' E 013°56'816.0
2017-Aug-10 20:59N 44°20' E 013°49'816.0
2017-Aug-10 20:30N 44°27' E 013°43'816.1
2017-Aug-10 20:00N 44°33' E 013°36'816.3
2017-Aug-10 19:30N 44°40' E 013°30'816.4
2017-Aug-10 19:00N 44°47' E 013°23'816.7
2017-Aug-10 18:30N 44°54' E 013°16'816.5
2017-Aug-10 18:00N 45°00' E 013°09'6574.7
2017-Aug-10 18:00N 44°54' E 013°06'   290 / 111012.0 25.020.7

Dump ship's entire track history